createdAt,value
2023-04-12T00:01:16.014Z,6.50
2023-04-12T00:04:18.810Z,6.41
2023-04-12T00:07:24.960Z,6.40
2023-04-12T00:10:27.560Z,6.42
2023-04-12T00:13:30.508Z,6.32
2023-04-12T00:16:33.237Z,6.36
2023-04-12T00:19:35.517Z,6.35
2023-04-12T00:22:44.043Z,6.32
2023-04-12T00:25:46.450Z,6.25
2023-04-12T00:28:49.098Z,6.28
2023-04-12T00:31:51.318Z,6.31
2023-04-12T00:34:53.900Z,6.19
2023-04-12T00:37:56.525Z,6.17
2023-04-12T00:40:59.441Z,6.14
2023-04-12T00:44:01.657Z,6.13
2023-04-12T00:47:05.536Z,6.10
2023-04-12T00:50:09.129Z,6.03
2023-04-12T00:53:13.606Z,6.04
2023-04-12T00:56:16.139Z,6.00
2023-04-12T00:59:18.636Z,5.96
2023-04-12T01:02:20.978Z,5.93
2023-04-12T01:05:24.670Z,5.85
2023-04-12T01:08:34.096Z,5.89
2023-04-12T01:11:47.667Z,5.79
2023-04-12T01:15:12.681Z,5.77
2023-04-12T01:18:22.112Z,5.76
2023-04-12T01:21:35.944Z,5.78
2023-04-12T01:25:01.759Z,5.69
2023-04-12T01:28:05.554Z,5.67
2023-04-12T01:31:09.032Z,5.69
2023-04-12T01:34:13.671Z,5.63
2023-04-12T01:37:19.799Z,5.56
2023-04-12T01:40:22.584Z,5.58
2023-04-12T01:43:25.230Z,5.54
2023-04-12T01:46:27.603Z,5.51
2023-04-12T01:49:37.792Z,5.51
2023-04-12T01:52:46.500Z,5.46
2023-04-12T01:55:50.785Z,5.44
2023-04-12T01:58:53.940Z,5.42
2023-04-12T02:01:57.095Z,5.40
2023-04-12T02:05:01.692Z,5.41
2023-04-12T02:08:04.641Z,5.38
2023-04-12T02:11:14.732Z,5.39
2023-04-12T02:14:19.565Z,5.37
2023-04-12T02:17:21.945Z,5.39
2023-04-12T02:20:25.938Z,5.42
2023-04-12T02:23:28.091Z,5.45
2023-04-12T02:26:30.578Z,5.46
2023-04-12T02:29:32.769Z,5.51
2023-04-12T02:32:44.018Z,5.55
2023-04-12T02:35:47.721Z,5.56
2023-04-12T02:38:51.659Z,5.54
2023-04-12T02:41:54.312Z,5.40
2023-04-12T02:44:56.766Z,5.29
2023-04-12T02:47:59.458Z,5.22
2023-04-12T02:51:03.157Z,5.22
2023-04-12T02:54:06.081Z,5.23
2023-04-12T02:57:11.485Z,5.18
2023-04-12T03:00:17.948Z,5.20
2023-04-12T03:03:21.798Z,5.20
2023-04-12T03:06:26.071Z,5.12
2023-04-12T03:09:28.847Z,5.04
2023-04-12T03:12:31.112Z,4.98
2023-04-12T03:15:35.550Z,5.05
2023-04-12T03:18:38.186Z,5.14
2023-04-12T03:21:40.823Z,5.18
2023-04-12T03:24:44.691Z,5.13
2023-04-12T03:27:48.603Z,5.15
2023-04-12T03:30:51.451Z,5.23
2023-04-12T03:33:54.539Z,5.26
2023-04-12T03:36:57.428Z,5.26
2023-04-12T03:40:00.806Z,5.20
2023-04-12T03:43:03.098Z,5.22
2023-04-12T03:46:06.553Z,5.13
2023-04-12T03:49:09.116Z,5.08
2023-04-12T03:52:11.970Z,5.02
2023-04-12T03:55:18.227Z,5.05
2023-04-12T03:58:22.415Z,4.98
2023-04-12T04:01:24.706Z,5.04
2023-04-12T04:04:28.271Z,5.06
2023-04-12T04:07:32.700Z,5.06
2023-04-12T04:10:36.216Z,5.05
2023-04-12T04:13:40.089Z,5.02
2023-04-12T04:16:43.084Z,4.97
2023-04-12T04:19:45.868Z,5.02
2023-04-12T04:22:48.890Z,4.99
2023-04-12T04:25:53.451Z,4.95
2023-04-12T04:28:56.394Z,4.96
2023-04-12T04:31:59.318Z,5.02
2023-04-12T04:35:02.043Z,5.10
2023-04-12T04:38:05.596Z,5.19
2023-04-12T04:41:09.200Z,5.26
2023-04-12T04:44:13.403Z,5.40
2023-04-12T04:47:17.297Z,5.55
2023-04-12T04:50:24.143Z,5.73
2023-04-12T04:53:27.022Z,6.01
2023-04-12T04:56:30.174Z,6.75
2023-04-12T04:59:33.704Z,7.07
2023-04-12T05:02:40.131Z,7.32
2023-04-12T05:05:42.682Z,7.55
2023-04-12T05:08:45.392Z,8.04
2023-04-12T05:11:49.503Z,8.23
2023-04-12T05:14:52.027Z,8.43
2023-04-12T05:17:54.709Z,8.50
2023-04-12T05:21:02.615Z,9.23
2023-04-12T05:24:07.200Z,9.84
2023-04-12T05:27:09.806Z,9.85
2023-04-12T05:30:12.594Z,11.14
2023-04-12T05:33:15.825Z,11.88
2023-04-12T05:36:18.504Z,12.48
2023-04-12T05:39:21.239Z,13.40
2023-04-12T05:42:24.022Z,14.67
2023-04-12T05:45:27.627Z,15.67
2023-04-12T05:48:35.091Z,16.27
2023-04-12T05:51:41.424Z,17.81
2023-04-12T05:54:46.162Z,18.97
2023-04-12T05:57:49.130Z,18.22
2023-04-12T06:00:54.338Z,19.29
2023-04-12T06:03:58.294Z,21.86
2023-04-12T06:07:01.968Z,22.48
2023-04-12T06:10:07.375Z,21.06
2023-04-12T06:13:10.155Z,20.45
2023-04-12T06:16:15.635Z,20.86
2023-04-12T06:19:18.210Z,19.73
2023-04-12T06:22:20.882Z,19.31
2023-04-12T06:25:23.280Z,18.47
2023-04-12T06:28:26.482Z,18.61
2023-04-12T06:31:28.996Z,20.76
2023-04-12T06:34:33.972Z,22.36
2023-04-12T06:37:37.090Z,20.47
2023-04-12T06:40:39.939Z,21.76
2023-04-12T06:43:42.175Z,21.15
2023-04-12T06:46:44.897Z,23.30
2023-04-12T06:49:48.233Z,24.89
2023-04-12T06:52:50.834Z,24.75
2023-04-12T06:55:53.867Z,25.55
2023-04-12T06:58:57.016Z,22.51
2023-04-12T07:01:59.371Z,23.09
2023-04-12T07:05:03.215Z,22.41
2023-04-12T07:08:05.629Z,24.26
2023-04-12T07:11:19.992Z,23.18
2023-04-12T07:14:24.345Z,21.31
2023-04-12T07:17:27.162Z,22.75
2023-04-12T07:20:29.486Z,19.81
2023-04-12T07:23:32.099Z,22.00
2023-04-12T07:26:34.356Z,22.85
2023-04-12T07:29:37.351Z,21.43
2023-04-12T07:32:39.562Z,17.96
2023-04-12T07:35:42.768Z,16.90
2023-04-12T07:38:44.910Z,15.38
2023-04-12T07:41:48.381Z,15.58
2023-04-12T07:44:50.743Z,14.90
2023-04-12T07:47:53.278Z,13.77
2023-04-12T07:50:55.581Z,13.01
2023-04-12T07:53:58.523Z,11.77
2023-04-12T07:57:05.465Z,10.76
2023-04-12T08:00:09.149Z,10.80
2023-04-12T08:03:17.533Z,10.92
2023-04-12T08:06:20.219Z,10.72
2023-04-12T08:09:23.583Z,11.13
2023-04-12T08:12:26.283Z,10.91
2023-04-12T08:15:28.413Z,10.80
2023-04-12T08:18:30.926Z,10.72
2023-04-12T08:21:33.847Z,11.09
2023-04-12T08:24:36.360Z,11.04
2023-04-12T08:27:43.192Z,11.01
2023-04-12T08:30:45.704Z,10.83
2023-04-12T08:33:48.073Z,10.45
2023-04-12T08:36:50.583Z,10.47
2023-04-12T08:39:52.859Z,10.49
2023-04-12T08:42:57.567Z,10.45
2023-04-12T08:46:00.898Z,10.55
2023-04-12T08:49:03.427Z,10.65
2023-04-12T08:52:07.517Z,10.75
2023-04-12T08:55:12.714Z,10.61
2023-04-12T08:58:15.655Z,10.85
2023-04-12T09:01:21.647Z,11.03
2023-04-12T09:04:26.220Z,11.03
2023-04-12T09:07:30.605Z,11.08
2023-04-12T09:10:36.423Z,11.20
2023-04-12T09:13:39.616Z,11.78
2023-04-12T09:16:42.271Z,12.15
2023-04-12T09:19:44.812Z,12.03
2023-04-12T09:22:47.659Z,12.72
2023-04-12T09:25:53.721Z,13.09
2023-04-12T09:28:57.498Z,13.32
2023-04-12T09:32:03.384Z,14.43
2023-04-12T09:35:06.389Z,15.19
2023-04-12T09:38:10.359Z,14.41
2023-04-12T09:41:20.233Z,14.22
2023-04-12T09:44:30.570Z,13.16
2023-04-12T09:47:40.411Z,12.85
2023-04-12T09:50:43.596Z,12.64
2023-04-12T09:53:48.061Z,12.48
2023-04-12T09:56:51.126Z,12.58
2023-04-12T09:59:56.861Z,13.11
2023-04-12T10:02:59.939Z,14.20
2023-04-12T10:06:04.715Z,15.23
2023-04-12T10:09:08.654Z,16.35
2023-04-12T10:12:11.189Z,17.36
2023-04-12T10:15:17.225Z,19.20
2023-04-12T10:18:21.969Z,19.09
2023-04-12T10:21:24.415Z,17.48
2023-04-12T10:24:28.892Z,16.40
2023-04-12T10:27:32.059Z,17.51
2023-04-12T10:30:34.427Z,18.63
2023-04-12T10:33:38.229Z,17.22
2023-04-12T10:37:00.493Z,16.26
2023-04-12T10:43:19.146Z,17.81
2023-04-12T10:46:41.082Z,18.67
2023-04-12T10:50:21.700Z,18.76
2023-04-12T10:53:25.266Z,19.73
2023-04-12T10:56:33.961Z,20.54
2023-04-12T10:59:57.199Z,20.57
2023-04-12T11:03:12.703Z,20.22
2023-04-12T11:06:27.072Z,20.94
2023-04-12T11:09:34.361Z,22.49
2023-04-12T11:12:38.810Z,23.45
2023-04-12T11:15:41.428Z,19.64
2023-04-12T11:18:47.196Z,21.51
2023-04-12T11:21:51.461Z,22.23
2023-04-12T11:24:56.479Z,22.87
2023-04-12T11:28:00.917Z,23.24
2023-04-12T11:31:03.989Z,25.55
2023-04-12T11:34:08.671Z,25.81
2023-04-12T11:37:11.175Z,23.16
2023-04-12T11:40:14.545Z,22.58
2023-04-12T11:43:22.716Z,24.15
2023-04-12T11:46:25.536Z,22.34
2023-04-12T11:49:28.362Z,22.78
2023-04-12T11:52:32.323Z,24.82
2023-04-12T11:55:34.480Z,22.53
2023-04-12T11:58:37.054Z,22.13
2023-04-12T12:01:39.384Z,23.09
2023-04-12T12:04:47.635Z,24.38
2023-04-12T12:07:52.567Z,22.51
2023-04-12T12:11:40.028Z,22.01
2023-04-12T12:14:21.953Z,22.23
2023-04-12T12:17:24.370Z,20.94
2023-04-12T12:20:29.951Z,20.37
2023-04-12T12:23:33.541Z,20.29
2023-04-12T12:26:35.943Z,21.97
2023-04-12T12:29:38.719Z,22.09
2023-04-12T12:32:41.034Z,22.07
2023-04-12T12:35:43.629Z,22.34
2023-04-12T12:38:45.848Z,22.61
2023-04-12T12:41:55.513Z,21.59
2023-04-12T12:44:57.634Z,22.50
2023-04-12T12:48:04.394Z,23.02
2023-04-12T12:51:06.825Z,24.12
2023-04-12T12:54:09.671Z,23.73
2023-04-12T12:57:12.359Z,24.41
2023-04-12T13:00:16.393Z,22.81
2023-04-12T13:03:18.861Z,23.93
2023-04-12T13:06:22.135Z,24.22
2023-04-12T13:09:24.275Z,23.75
2023-04-12T13:12:27.062Z,21.69
2023-04-12T13:15:29.855Z,20.36
2023-04-12T13:18:32.458Z,20.40
2023-04-12T13:21:34.590Z,19.89
2023-04-12T13:24:37.102Z,21.12
2023-04-12T13:27:39.565Z,20.40
2023-04-12T13:30:42.498Z,20.24
2023-04-12T13:33:44.794Z,19.80
2023-04-12T13:36:47.839Z,19.52
2023-04-12T13:39:53.217Z,19.25
2023-04-12T13:42:55.703Z,19.12
2023-04-12T13:45:57.956Z,18.45
2023-04-12T13:49:00.663Z,18.73
2023-04-12T13:52:03.162Z,17.73
2023-04-12T13:55:08.314Z,17.95
2023-04-12T13:58:10.704Z,18.28
2023-04-12T14:01:13.554Z,18.57
2023-04-12T14:04:16.102Z,18.11
2023-04-12T14:07:18.580Z,17.37
2023-04-12T14:10:21.077Z,17.17
2023-04-12T14:13:24.116Z,17.51
2023-04-12T14:16:26.606Z,17.47
2023-04-12T14:19:28.882Z,17.52
2023-04-12T14:22:31.464Z,17.38
2023-04-12T14:25:36.949Z,17.10
2023-04-12T14:28:39.913Z,17.03
2023-04-12T14:31:42.296Z,16.65
2023-04-12T14:34:45.014Z,16.77
2023-04-12T14:37:47.985Z,16.36
2023-04-12T14:40:51.574Z,16.61
2023-04-12T14:43:53.811Z,16.64
2023-04-12T14:46:56.742Z,16.77
2023-04-12T14:49:58.961Z,16.74
2023-04-12T14:53:01.411Z,16.49
2023-04-12T14:56:03.663Z,16.65
2023-04-12T14:59:06.159Z,16.55
2023-04-12T15:02:08.779Z,16.57
2023-04-12T15:05:11.706Z,16.68
2023-04-12T15:08:14.033Z,16.59
2023-04-12T15:11:19.255Z,16.68
2023-04-12T15:14:22.809Z,16.57
2023-04-12T15:17:25.483Z,16.73
2023-04-12T15:20:27.721Z,16.46
2023-04-12T15:23:30.458Z,16.43
2023-04-12T15:26:35.040Z,16.28
2023-04-12T15:29:37.599Z,16.35
2023-04-12T15:32:42.657Z,16.39
2023-04-12T15:35:46.001Z,16.52
2023-04-12T15:38:48.314Z,16.20
2023-04-12T15:41:51.091Z,16.17
2023-04-12T15:44:53.350Z,16.02
2023-04-12T15:47:56.170Z,15.73
2023-04-12T15:51:00.253Z,15.64
2023-04-12T15:54:02.844Z,15.43
2023-04-12T15:57:09.460Z,15.38
2023-04-12T16:00:20.668Z,15.12
2023-04-12T16:03:24.698Z,15.27
2023-04-12T16:06:26.820Z,15.40
2023-04-12T16:09:29.993Z,15.09
2023-04-12T16:12:32.298Z,14.93
2023-04-12T16:15:34.832Z,14.89
2023-04-12T16:18:36.999Z,14.56
2023-04-12T16:24:43.747Z,14.36
2023-04-12T16:27:46.221Z,14.19
2023-04-12T16:30:50.145Z,14.02
2023-04-12T16:33:53.591Z,13.89
2023-04-12T16:36:56.261Z,13.79
2023-04-12T16:39:58.854Z,13.76
2023-04-12T16:43:01.123Z,13.62
2023-04-12T16:46:05.150Z,13.53
2023-04-12T16:49:07.340Z,13.61
2023-04-12T16:52:10.072Z,13.45
2023-04-12T16:55:12.692Z,13.34
2023-04-12T16:58:15.714Z,13.27
2023-04-12T17:01:18.278Z,13.22
2023-04-12T17:04:20.907Z,13.15
2023-04-12T17:07:23.104Z,13.10
2023-04-12T17:10:26.697Z,13.02
2023-04-12T17:13:30.275Z,12.91
2023-04-12T17:16:32.780Z,12.71
2023-04-12T17:19:35.080Z,12.60
2023-04-12T17:22:38.482Z,12.68
2023-04-12T17:25:41.430Z,12.47
2023-04-12T17:28:44.944Z,12.30
2023-04-12T17:31:50.689Z,12.09
2023-04-12T17:34:55.647Z,12.01
2023-04-12T17:37:57.857Z,11.83
2023-04-12T17:41:00.411Z,11.67
2023-04-12T17:44:02.609Z,11.57
2023-04-12T17:47:05.059Z,11.49
2023-04-12T17:50:11.532Z,11.59
2023-04-12T17:53:14.083Z,11.35
2023-04-12T17:56:18.704Z,11.37
2023-04-12T17:59:21.129Z,11.20
2023-04-12T18:02:23.459Z,11.04
2023-04-12T18:05:26.252Z,11.18
2023-04-12T18:08:28.450Z,11.03
2023-04-12T18:11:31.138Z,11.00
2023-04-12T18:14:33.368Z,10.94
2023-04-12T18:17:36.000Z,10.85
2023-04-12T18:20:38.211Z,10.69
2023-04-12T18:23:40.726Z,10.64
2023-04-12T18:26:44.082Z,10.53
2023-04-12T18:29:46.494Z,10.46
2023-04-12T18:32:48.786Z,10.41
2023-04-12T18:35:51.613Z,10.34
2023-04-12T18:38:53.776Z,10.29
2023-04-12T18:41:57.117Z,10.26
2023-04-12T18:44:59.333Z,10.18
2023-04-12T18:48:03.319Z,10.15
2023-04-12T18:51:05.542Z,10.02
2023-04-12T18:54:12.803Z,9.95
2023-04-12T18:57:15.643Z,9.93
2023-04-12T19:00:19.701Z,9.93
2023-04-12T19:03:22.098Z,9.84
2023-04-12T19:06:24.790Z,9.82
2023-04-12T19:09:27.389Z,9.74
2023-04-12T19:12:30.350Z,9.71
2023-04-12T19:15:32.647Z,9.67
2023-04-12T19:18:35.347Z,9.57
2023-04-12T19:21:37.812Z,9.49
2023-04-12T19:24:40.301Z,9.47
2023-04-12T19:27:42.435Z,9.47
2023-04-12T19:30:44.872Z,9.44
2023-04-12T19:33:47.021Z,9.41
2023-04-12T19:36:49.595Z,9.35
2023-04-12T19:39:51.769Z,9.32
2023-04-12T19:42:54.294Z,9.34
2023-04-12T19:45:57.626Z,9.29
2023-04-12T19:49:00.573Z,9.15
2023-04-12T19:52:05.440Z,9.14
2023-04-12T19:55:09.125Z,9.21
2023-04-12T19:58:11.556Z,9.16
2023-04-12T20:01:15.979Z,9.10
2023-04-12T20:04:21.066Z,9.04
2023-04-12T20:07:23.304Z,8.96
2023-04-12T20:10:25.822Z,8.85
2023-04-12T20:13:30.955Z,8.74
2023-04-12T20:16:34.975Z,8.68
2023-04-12T20:19:37.620Z,8.77
2023-04-12T20:22:48.863Z,8.79
2023-04-12T20:25:51.274Z,8.74
2023-04-12T20:28:56.672Z,8.68
2023-04-12T20:31:59.941Z,8.62
2023-04-12T20:35:03.747Z,8.54
2023-04-12T20:38:07.066Z,8.46
2023-04-12T20:41:10.712Z,8.37
2023-04-12T20:44:13.019Z,8.36
2023-04-12T20:47:16.118Z,8.38
2023-04-12T20:50:22.783Z,8.37
2023-04-12T20:53:25.602Z,8.23
2023-04-12T20:56:29.134Z,8.14
2023-04-12T20:59:33.069Z,8.04
2023-04-12T21:02:36.213Z,7.94
2023-04-12T21:05:40.071Z,7.87
2023-04-12T21:08:43.366Z,7.81
2023-04-12T21:11:46.434Z,7.90
2023-04-12T21:14:51.135Z,7.95
2023-04-12T21:17:54.203Z,8.02
2023-04-12T21:20:59.229Z,8.00
2023-04-12T21:24:03.535Z,7.93
2023-04-12T21:27:07.426Z,7.95
2023-04-12T21:30:14.008Z,7.92
2023-04-12T21:33:24.466Z,7.90
2023-04-12T21:36:28.552Z,7.88
2023-04-12T21:39:30.981Z,7.77
2023-04-12T21:42:34.508Z,7.69
2023-04-12T21:45:36.875Z,7.66
2023-04-12T21:48:39.306Z,7.57
2023-04-12T21:51:41.552Z,7.66
2023-04-12T21:54:48.664Z,7.55
2023-04-12T21:57:51.071Z,7.52
2023-04-12T22:00:53.618Z,7.46
2023-04-12T22:03:57.264Z,7.42
2023-04-12T22:07:02.037Z,7.34
2023-04-12T22:10:05.218Z,7.47
2023-04-12T22:13:10.226Z,7.39
2023-04-12T22:16:14.020Z,7.43
2023-04-12T22:19:17.079Z,7.46
2023-04-12T22:22:19.498Z,7.41
2023-04-12T22:25:21.910Z,7.55
2023-04-12T22:28:24.606Z,7.54
2023-04-12T22:31:27.533Z,7.55
2023-04-12T22:34:30.030Z,7.40
2023-04-12T22:37:33.544Z,7.39
2023-04-12T22:40:38.002Z,7.38
2023-04-12T22:43:42.705Z,7.35
2023-04-12T22:46:48.429Z,7.34
2023-04-12T22:49:50.878Z,7.36
2023-04-12T22:52:54.420Z,7.45
2023-04-12T22:55:57.179Z,7.48
2023-04-12T22:58:59.907Z,7.52
2023-04-12T23:02:02.298Z,7.60
2023-04-12T23:05:05.534Z,7.79
2023-04-12T23:08:09.181Z,7.88
2023-04-12T23:11:11.663Z,7.94
2023-04-12T23:14:17.686Z,7.96
2023-04-12T23:17:20.198Z,8.06
2023-04-12T23:20:23.055Z,8.16
2023-04-12T23:23:26.313Z,8.15
2023-04-12T23:26:28.587Z,8.17
2023-04-12T23:29:31.179Z,8.23
2023-04-12T23:32:33.363Z,8.36
2023-04-12T23:35:39.176Z,8.35
2023-04-12T23:38:44.399Z,8.42
2023-04-12T23:41:47.007Z,8.48
2023-04-12T23:44:49.741Z,8.46
2023-04-12T23:47:52.518Z,8.47
2023-04-12T23:50:54.858Z,8.48
2023-04-12T23:53:57.795Z,8.53
2023-04-12T23:57:01.296Z,8.56
